createdAt,value
2019-02-11T00:00:44.125Z,7.25
2019-02-11T00:03:11.255Z,7.09
2019-02-11T00:05:38.384Z,7.10
2019-02-11T00:08:05.597Z,7.01
2019-02-11T00:10:32.789Z,7.17
2019-02-11T00:12:59.930Z,7.04
2019-02-11T00:15:27.150Z,6.92
2019-02-11T00:17:54.318Z,6.88
2019-02-11T00:20:21.506Z,6.86
2019-02-11T00:22:48.703Z,6.81
2019-02-11T00:25:16.193Z,6.76
2019-02-11T00:27:43.351Z,6.71
2019-02-11T00:30:10.580Z,6.68
2019-02-11T00:32:37.734Z,6.77
2019-02-11T00:35:05.239Z,6.80
2019-02-11T00:37:32.732Z,6.71
2019-02-11T00:39:59.949Z,6.64
2019-02-11T00:42:27.100Z,6.67
2019-02-11T00:44:54.339Z,6.65
2019-02-11T00:47:21.504Z,6.61
2019-02-11T00:49:48.662Z,6.53
2019-02-11T00:52:15.842Z,6.50
2019-02-11T00:54:43.084Z,6.39
2019-02-11T00:57:10.285Z,6.39
2019-02-11T00:59:37.549Z,6.51
2019-02-11T01:02:04.710Z,6.29
2019-02-11T01:04:32.080Z,6.20
2019-02-11T01:06:59.583Z,6.16
2019-02-11T01:09:26.797Z,6.15
2019-02-11T01:11:53.997Z,6.42
2019-02-11T01:14:21.218Z,6.32
2019-02-11T01:16:48.366Z,6.14
2019-02-11T01:19:15.610Z,6.06
2019-02-11T01:21:42.783Z,6.21
2019-02-11T01:24:10.018Z,6.09
2019-02-11T01:26:37.193Z,6.11
2019-02-11T01:29:04.440Z,6.01
2019-02-11T01:31:31.584Z,5.88
2019-02-11T01:33:58.749Z,5.96
2019-02-11T01:36:26.080Z,5.87
2019-02-11T01:38:53.527Z,5.80
2019-02-11T01:41:20.709Z,5.83
2019-02-11T01:43:47.913Z,5.90
2019-02-11T01:46:15.097Z,5.85
2019-02-11T01:48:42.571Z,5.82
2019-02-11T01:51:09.781Z,5.79
2019-02-11T01:53:36.937Z,5.73
2019-02-11T01:56:04.114Z,5.75
2019-02-11T01:58:31.735Z,5.81
2019-02-11T02:00:58.938Z,5.76
2019-02-11T02:03:26.110Z,5.64
2019-02-11T02:05:53.223Z,5.62
2019-02-11T02:08:20.671Z,5.65
2019-02-11T02:10:47.852Z,5.70
2019-02-11T02:13:15.065Z,5.64
2019-02-11T02:15:42.219Z,5.71
2019-02-11T02:18:09.402Z,5.61
2019-02-11T02:20:36.770Z,5.68
2019-02-11T02:23:03.909Z,5.78
2019-02-11T02:25:31.058Z,5.75
2019-02-11T02:27:58.307Z,5.68
2019-02-11T02:30:25.443Z,5.66
2019-02-11T02:32:52.496Z,5.57
2019-02-11T02:35:19.718Z,5.54
2019-02-11T02:37:46.938Z,5.59
2019-02-11T02:40:14.086Z,5.60
2019-02-11T02:42:41.314Z,5.47
2019-02-11T02:45:08.708Z,5.43
2019-02-11T02:47:35.918Z,5.45
2019-02-11T02:50:03.205Z,5.47
2019-02-11T02:52:30.364Z,5.38
2019-02-11T02:54:57.546Z,5.39
2019-02-11T02:57:24.724Z,5.36
2019-02-11T02:59:51.942Z,5.35
2019-02-11T03:02:19.099Z,5.48
2019-02-11T03:04:46.346Z,5.55
2019-02-11T03:07:13.714Z,5.40
2019-02-11T03:09:40.899Z,5.36
2019-02-11T03:12:08.097Z,5.32
2019-02-11T03:14:35.265Z,5.22
2019-02-11T03:17:02.457Z,5.24
2019-02-11T03:19:29.636Z,5.16
2019-02-11T03:21:56.821Z,5.15
2019-02-11T03:24:23.975Z,5.30
2019-02-11T03:26:51.204Z,5.30
2019-02-11T03:29:18.366Z,5.16
2019-02-11T03:31:45.841Z,5.07
2019-02-11T03:34:13.279Z,4.96
2019-02-11T03:36:40.466Z,5.07
2019-02-11T03:39:07.662Z,5.18
2019-02-11T03:41:34.863Z,5.05
2019-02-11T03:44:02.094Z,4.93
2019-02-11T03:46:29.320Z,5.03
2019-02-11T03:48:56.527Z,4.99
2019-02-11T03:51:23.670Z,4.89
2019-02-11T03:53:50.940Z,4.85
2019-02-11T03:56:18.131Z,4.90
2019-02-11T03:58:45.276Z,4.86
2019-02-11T04:01:12.482Z,4.83
2019-02-11T04:03:39.647Z,4.82
2019-02-11T04:06:06.876Z,4.76
2019-02-11T04:08:34.921Z,4.79
2019-02-11T04:11:02.203Z,4.73
2019-02-11T04:13:29.651Z,4.86
2019-02-11T04:15:56.839Z,4.75
2019-02-11T04:18:24.374Z,4.67
2019-02-11T04:20:51.437Z,4.64
2019-02-11T04:23:18.642Z,4.72
2019-02-11T04:25:45.849Z,4.88
2019-02-11T04:28:13.003Z,4.78
2019-02-11T04:30:40.151Z,4.76
2019-02-11T04:33:07.253Z,4.85
2019-02-11T04:35:34.331Z,4.89
2019-02-11T04:38:01.463Z,4.88
2019-02-11T04:40:28.659Z,4.85
2019-02-11T04:42:56.087Z,4.83
2019-02-11T04:45:23.219Z,4.93
2019-02-11T04:47:50.372Z,5.13
2019-02-11T04:50:17.596Z,5.09
2019-02-11T04:52:46.576Z,5.15
2019-02-11T04:55:13.819Z,5.05
2019-02-11T04:57:40.960Z,5.06
2019-02-11T05:00:08.592Z,5.06
2019-02-11T05:02:35.805Z,5.05
2019-02-11T05:05:03.514Z,5.06
2019-02-11T05:07:30.670Z,5.21
2019-02-11T05:09:57.890Z,5.20
2019-02-11T05:12:25.069Z,5.15
2019-02-11T05:14:52.252Z,5.16
2019-02-11T05:17:19.609Z,5.16
2019-02-11T05:19:46.768Z,5.10
2019-02-11T05:22:13.981Z,5.21
2019-02-11T05:24:41.145Z,5.19
2019-02-11T05:27:08.341Z,5.40
2019-02-11T05:29:35.508Z,5.34
2019-02-11T05:32:02.716Z,5.33
2019-02-11T05:34:29.855Z,5.40
2019-02-11T05:36:57.088Z,5.31
2019-02-11T05:39:24.356Z,5.32
2019-02-11T05:41:51.568Z,5.35
2019-02-11T05:44:19.018Z,5.41
2019-02-11T05:46:46.276Z,5.49
2019-02-11T05:49:13.564Z,5.50
2019-02-11T05:51:40.751Z,5.52
2019-02-11T05:54:08.040Z,5.65
2019-02-11T05:56:35.222Z,5.65
2019-02-11T05:59:02.436Z,5.64
2019-02-11T06:01:29.700Z,5.57
2019-02-11T06:03:56.766Z,5.58
2019-02-11T06:06:23.980Z,5.60
2019-02-11T06:08:51.160Z,5.53
2019-02-11T06:11:18.380Z,5.56
2019-02-11T06:13:45.610Z,5.61
2019-02-11T06:16:12.826Z,5.61
2019-02-11T06:18:39.947Z,5.60
2019-02-11T06:21:07.132Z,5.72
2019-02-11T06:23:34.324Z,5.67
2019-02-11T06:26:01.513Z,5.65
2019-02-11T06:28:28.716Z,5.78
2019-02-11T06:30:56.258Z,5.87
2019-02-11T06:33:23.732Z,5.91
2019-02-11T06:35:50.896Z,5.85
2019-02-11T06:38:18.114Z,5.84
2019-02-11T06:40:45.548Z,5.85
2019-02-11T06:43:12.706Z,5.81
2019-02-11T06:45:39.832Z,5.81
2019-02-11T06:48:06.977Z,5.80
2019-02-11T06:50:34.391Z,5.82
2019-02-11T06:53:01.591Z,5.87
2019-02-11T06:55:28.773Z,5.89
2019-02-11T06:57:55.965Z,6.20
2019-02-11T07:00:23.223Z,6.29
2019-02-11T07:02:50.285Z,6.27
2019-02-11T07:05:17.435Z,6.17
2019-02-11T07:07:44.922Z,6.11
2019-02-11T07:10:12.084Z,6.01
2019-02-11T07:12:39.254Z,5.95
2019-02-11T07:15:08.208Z,5.90
2019-02-11T07:17:35.720Z,6.07
2019-02-11T07:20:03.517Z,6.15
2019-02-11T07:22:30.723Z,6.21
2019-02-11T07:24:57.904Z,6.14
2019-02-11T07:27:24.999Z,6.11
2019-02-11T07:29:52.223Z,6.38
2019-02-11T07:32:19.372Z,6.40
2019-02-11T07:34:46.549Z,6.28
2019-02-11T07:37:13.777Z,6.27
2019-02-11T07:39:40.926Z,6.31
2019-02-11T07:42:36.563Z,6.32
2019-02-11T07:45:13.230Z,6.38
2019-02-11T07:47:40.916Z,6.67
2019-02-11T07:50:08.098Z,6.69
2019-02-11T07:52:35.272Z,6.64
2019-02-11T07:55:02.774Z,6.77
2019-02-11T07:57:30.261Z,6.83
2019-02-11T07:59:57.481Z,6.73
2019-02-11T08:02:24.669Z,6.79
2019-02-11T08:04:52.093Z,6.79
2019-02-11T08:07:19.319Z,6.72
2019-02-11T08:09:46.544Z,6.69
2019-02-11T08:12:13.971Z,6.72
2019-02-11T08:14:41.073Z,6.95
2019-02-11T08:17:08.277Z,6.93
2019-02-11T08:19:35.378Z,6.95
2019-02-11T08:22:02.587Z,6.81
2019-02-11T08:24:29.789Z,6.70
2019-02-11T08:26:56.956Z,6.64
2019-02-11T08:29:24.155Z,6.74
2019-02-11T08:31:51.607Z,6.73
2019-02-11T08:34:18.763Z,6.74
2019-02-11T08:36:46.200Z,6.91
2019-02-11T08:39:13.429Z,7.12
2019-02-11T08:41:40.911Z,7.13
2019-02-11T08:44:08.080Z,7.29
2019-02-11T08:46:35.301Z,7.30
2019-02-11T08:49:02.504Z,7.26
2019-02-11T08:51:29.683Z,7.44
2019-02-11T08:53:56.892Z,7.51
2019-02-11T08:56:24.076Z,7.66
2019-02-11T08:58:51.236Z,7.87
2019-02-11T09:01:18.384Z,7.91
2019-02-11T09:03:45.876Z,7.91
2019-02-11T09:06:13.070Z,7.95
2019-02-11T09:08:40.315Z,8.12
2019-02-11T09:11:07.483Z,8.18
2019-02-11T09:13:34.702Z,8.31
2019-02-11T09:16:02.072Z,8.38
2019-02-11T09:18:29.233Z,8.51
2019-02-11T09:20:56.320Z,8.69
2019-02-11T09:23:23.561Z,8.85
2019-02-11T09:25:50.719Z,9.00
2019-02-11T09:28:18.256Z,9.17
2019-02-11T09:30:45.452Z,9.27
2019-02-11T09:33:12.642Z,9.05
2019-02-11T09:35:40.046Z,8.92
2019-02-11T09:38:07.184Z,8.73
2019-02-11T09:40:34.359Z,8.61
2019-02-11T09:43:01.789Z,8.69
2019-02-11T09:45:29.073Z,9.07
2019-02-11T09:47:56.451Z,9.65
2019-02-11T09:50:26.874Z,10.07
2019-02-11T09:52:54.918Z,10.41
2019-02-11T09:55:27.001Z,10.44
2019-02-11T09:57:54.198Z,10.24
2019-02-11T10:00:21.612Z,10.04
2019-02-11T10:02:48.778Z,9.88
2019-02-11T10:05:15.966Z,9.96
2019-02-11T10:07:43.146Z,10.21
2019-02-11T10:10:10.443Z,10.47
2019-02-11T10:12:37.615Z,10.73
2019-02-11T10:15:06.836Z,11.04
2019-02-11T10:17:33.986Z,11.40
2019-02-11T10:20:01.150Z,11.34
2019-02-11T10:22:28.558Z,11.11
2019-02-11T10:24:55.663Z,10.95
2019-02-11T10:27:22.832Z,10.89
2019-02-11T10:29:50.254Z,10.85
2019-02-11T10:32:17.476Z,10.81
2019-02-11T10:34:44.640Z,10.66
2019-02-11T10:37:11.876Z,10.63
2019-02-11T10:39:39.033Z,10.62
2019-02-11T10:42:06.188Z,10.59
2019-02-11T10:44:33.555Z,10.58
2019-02-11T10:47:00.721Z,10.70
2019-02-11T10:49:27.884Z,10.51
2019-02-11T10:51:55.094Z,10.18
2019-02-11T10:54:22.272Z,9.77
2019-02-11T10:56:49.468Z,9.45
2019-02-11T10:59:16.658Z,9.22
2019-02-11T11:01:43.831Z,9.05
2019-02-11T11:04:11.274Z,8.88
2019-02-11T11:06:38.684Z,8.79
2019-02-11T11:09:09.470Z,8.82
2019-02-11T11:11:36.555Z,8.94
2019-02-11T11:14:03.753Z,9.09
2019-02-11T11:16:31.212Z,9.34
2019-02-11T11:18:58.407Z,9.52
2019-02-11T11:21:25.631Z,9.61
2019-02-11T11:23:52.822Z,9.57
2019-02-11T11:26:20.381Z,9.63
2019-02-11T11:28:47.774Z,9.84
2019-02-11T11:31:15.254Z,9.96
2019-02-11T11:33:42.413Z,10.00
2019-02-11T11:36:09.633Z,9.98
2019-02-11T11:38:36.823Z,10.05
2019-02-11T11:41:04.338Z,10.13
2019-02-11T11:43:31.539Z,10.33
2019-02-11T11:45:58.734Z,10.48
2019-02-11T11:48:25.933Z,10.56
2019-02-11T11:50:53.056Z,10.65
2019-02-11T11:53:20.212Z,10.72
2019-02-11T11:55:47.450Z,10.77
2019-02-11T11:58:14.971Z,10.90
2019-02-11T12:00:42.154Z,11.13
2019-02-11T12:03:09.297Z,11.34
2019-02-11T12:05:36.396Z,11.33
2019-02-11T12:08:03.626Z,11.38
2019-02-11T12:10:31.048Z,11.41
2019-02-11T12:12:58.353Z,11.43
2019-02-11T12:15:25.732Z,11.43
2019-02-11T12:17:52.828Z,11.45
2019-02-11T12:20:20.016Z,11.49
2019-02-11T12:22:47.265Z,11.52
2019-02-11T12:25:14.746Z,11.48
2019-02-11T12:27:42.047Z,11.51
2019-02-11T12:30:14.591Z,11.55
2019-02-11T12:32:41.814Z,11.50
2019-02-11T12:35:09.824Z,11.50
2019-02-11T12:37:37.004Z,11.44
2019-02-11T12:40:04.871Z,11.20
2019-02-11T12:42:32.099Z,10.93
2019-02-11T12:44:59.930Z,10.67
2019-02-11T12:47:27.146Z,10.58
2019-02-11T12:49:54.682Z,10.51
2019-02-11T12:52:22.160Z,10.52
2019-02-11T12:54:49.345Z,10.44
2019-02-11T12:57:16.880Z,10.39
2019-02-11T12:59:44.643Z,10.48
2019-02-11T13:02:11.822Z,10.51
2019-02-11T13:04:39.008Z,10.75
2019-02-11T13:07:06.167Z,10.76
2019-02-11T13:09:33.710Z,10.75
2019-02-11T13:12:01.112Z,10.55
2019-02-11T13:14:28.292Z,10.49
2019-02-11T13:16:55.400Z,10.45
2019-02-11T13:19:22.597Z,10.43
2019-02-11T13:21:49.823Z,10.33
2019-02-11T13:24:17.001Z,10.21
2019-02-11T13:26:44.540Z,10.08
2019-02-11T13:29:11.731Z,9.94
2019-02-11T13:31:38.932Z,9.90
2019-02-11T13:34:06.140Z,9.92
2019-02-11T13:36:33.321Z,10.01
2019-02-11T13:39:00.537Z,9.96
2019-02-11T13:41:28.241Z,9.88
2019-02-11T13:43:55.384Z,9.95
2019-02-11T13:46:22.692Z,9.96
2019-02-11T13:48:50.537Z,9.98
2019-02-11T13:51:17.939Z,10.06
2019-02-11T13:53:45.068Z,10.06
2019-02-11T13:56:12.276Z,10.12
2019-02-11T13:58:39.378Z,10.09
2019-02-11T14:01:09.479Z,10.13
2019-02-11T14:03:36.767Z,10.21
2019-02-11T14:06:04.012Z,10.14
2019-02-11T14:08:31.211Z,10.17
2019-02-11T14:10:58.413Z,10.02
2019-02-11T14:13:25.636Z,9.92
2019-02-11T14:15:52.814Z,9.82
2019-02-11T14:18:20.074Z,9.76
2019-02-11T14:20:50.063Z,9.55
2019-02-11T14:23:16.340Z,9.38
2019-02-11T14:25:47.048Z,9.16
2019-02-11T14:28:12.831Z,9.13
2019-02-11T14:30:39.990Z,9.23
2019-02-11T14:33:07.391Z,9.39
2019-02-11T14:35:34.738Z,9.57
2019-02-11T14:38:03.025Z,9.63
2019-02-11T14:40:30.665Z,9.58
2019-02-11T14:42:58.885Z,9.57
2019-02-11T14:45:26.515Z,9.57
2019-02-11T14:47:54.066Z,9.55
2019-02-11T14:50:21.400Z,9.54
2019-02-11T14:52:48.778Z,9.52
2019-02-11T14:55:16.435Z,9.57
2019-02-11T14:57:43.617Z,9.49
2019-02-11T15:00:16.545Z,9.37
2019-02-11T15:02:43.745Z,9.21
2019-02-11T15:05:10.918Z,8.96
2019-02-11T15:07:38.193Z,8.56
2019-02-11T15:10:06.099Z,8.41
2019-02-11T15:12:34.292Z,8.45
2019-02-11T15:15:01.563Z,8.51
2019-02-11T15:17:28.894Z,8.60
2019-02-11T15:19:56.085Z,8.81
2019-02-11T15:22:23.207Z,8.76
2019-02-11T15:24:50.352Z,8.69
2019-02-11T15:27:17.585Z,8.56
2019-02-11T15:29:44.760Z,8.54
2019-02-11T15:32:11.984Z,8.47
2019-02-11T15:34:39.170Z,8.45
2019-02-11T15:37:06.374Z,8.50
2019-02-11T15:39:33.856Z,8.38
2019-02-11T15:42:01.074Z,8.22
2019-02-11T15:44:28.342Z,8.15
2019-02-11T15:46:55.557Z,8.06
2019-02-11T15:49:22.751Z,8.04
2019-02-11T15:51:50.003Z,7.98
2019-02-11T15:54:17.205Z,7.90
2019-02-11T15:56:44.439Z,7.81
2019-02-11T15:59:11.947Z,7.67
2019-02-11T16:01:39.463Z,7.61
2019-02-11T16:04:06.541Z,7.46
2019-02-11T16:06:38.171Z,7.34
2019-02-11T16:09:04.847Z,7.19
2019-02-11T16:11:35.735Z,6.97
2019-02-11T16:14:03.330Z,6.82
2019-02-11T16:16:30.518Z,6.76
2019-02-11T16:18:57.677Z,6.65
2019-02-11T16:21:24.930Z,6.77
2019-02-11T16:23:52.125Z,6.84
2019-02-11T16:26:19.340Z,6.87
2019-02-11T16:28:46.596Z,6.98
2019-02-11T16:31:13.845Z,6.99
2019-02-11T16:33:40.992Z,6.93
2019-02-11T16:36:09.004Z,6.99
2019-02-11T16:38:36.152Z,7.15
2019-02-11T16:41:03.361Z,7.11
2019-02-11T16:43:30.586Z,7.02
2019-02-11T16:45:58.043Z,7.07
2019-02-11T16:48:25.215Z,7.08
2019-02-11T16:50:52.389Z,6.90
2019-02-11T16:53:19.635Z,6.77
2019-02-11T16:55:46.990Z,6.66
2019-02-11T16:58:14.643Z,6.71
2019-02-11T17:00:41.827Z,6.59
2019-02-11T17:03:09.035Z,6.43
2019-02-11T17:05:36.129Z,6.24
2019-02-11T17:08:03.665Z,6.07
2019-02-11T17:10:30.853Z,6.09
2019-02-11T17:12:58.081Z,6.15
2019-02-11T17:15:25.225Z,6.12
2019-02-11T17:17:52.574Z,6.13
2019-02-11T17:20:19.777Z,6.28
2019-02-11T17:22:47.027Z,6.22
2019-02-11T17:25:14.480Z,6.16
2019-02-11T17:27:41.745Z,6.20
2019-02-11T17:30:11.795Z,6.27
2019-02-11T17:32:38.856Z,6.28
2019-02-11T17:35:06.782Z,6.02
2019-02-11T17:37:33.974Z,5.85
2019-02-11T17:40:01.165Z,5.87
2019-02-11T17:42:28.471Z,5.80
2019-02-11T17:44:55.696Z,5.76
2019-02-11T17:47:22.903Z,5.68
2019-02-11T17:49:50.084Z,5.83
2019-02-11T17:52:17.348Z,5.66
2019-02-11T17:54:44.822Z,5.62
2019-02-11T17:57:12.014Z,5.59
2019-02-11T17:59:39.624Z,5.59
2019-02-11T18:02:10.402Z,5.55
2019-02-11T18:04:37.633Z,5.39
2019-02-11T18:07:04.842Z,5.32
2019-02-11T18:09:32.051Z,5.27
2019-02-11T18:11:59.595Z,5.34
2019-02-11T18:14:26.660Z,5.29
2019-02-11T18:16:53.889Z,5.39
2019-02-11T18:19:26.364Z,5.45
2019-02-11T18:21:50.635Z,5.58
2019-02-11T18:24:17.818Z,5.67
2019-02-11T18:26:45.052Z,5.76
2019-02-11T18:29:12.223Z,5.90
2019-02-11T18:31:39.493Z,6.24
2019-02-11T18:34:06.951Z,6.19
2019-02-11T18:36:34.121Z,6.16
2019-02-11T18:39:01.571Z,6.23
2019-02-11T18:41:29.219Z,6.21
2019-02-11T18:43:56.420Z,6.19
2019-02-11T18:46:23.620Z,6.17
2019-02-11T18:48:50.830Z,6.18
2019-02-11T18:51:18.104Z,6.13
2019-02-11T18:53:45.287Z,6.10
2019-02-11T18:56:12.408Z,5.97
2019-02-11T18:58:39.673Z,5.83
2019-02-11T19:01:06.773Z,5.66
2019-02-11T19:03:34.008Z,5.48
2019-02-11T19:06:01.086Z,5.40
2019-02-11T19:08:28.323Z,5.32
2019-02-11T19:10:55.648Z,5.25
2019-02-11T19:13:22.835Z,5.20
2019-02-11T19:15:50.030Z,5.12
2019-02-11T19:18:17.248Z,5.08
2019-02-11T19:20:44.331Z,5.19
2019-02-11T19:23:11.800Z,5.19
2019-02-11T19:25:39.067Z,5.19
2019-02-11T19:28:06.216Z,5.22
2019-02-11T19:30:33.443Z,5.39
2019-02-11T19:33:00.805Z,5.18
2019-02-11T19:35:28.047Z,4.97
2019-02-11T19:37:55.170Z,4.74
2019-02-11T19:40:22.408Z,4.61
2019-02-11T19:42:49.503Z,4.49
2019-02-11T19:45:17.555Z,4.49
2019-02-11T19:47:44.645Z,4.38
2019-02-11T19:50:12.727Z,4.37
2019-02-11T19:52:39.939Z,4.32
2019-02-11T19:55:08.039Z,4.37
2019-02-11T19:57:35.254Z,4.35
2019-02-11T20:00:02.613Z,4.28
2019-02-11T20:02:29.881Z,4.22
2019-02-11T20:04:57.154Z,4.12
2019-02-11T20:07:24.368Z,4.15
2019-02-11T20:09:51.599Z,4.02
2019-02-11T20:12:18.793Z,4.00
2019-02-11T20:14:46.003Z,4.05
2019-02-11T20:17:13.257Z,4.08
2019-02-11T20:19:40.395Z,4.01
2019-02-11T20:22:07.599Z,3.90
2019-02-11T20:24:34.722Z,4.13
2019-02-11T20:27:01.890Z,4.07
2019-02-11T20:29:29.094Z,3.96
2019-02-11T20:31:56.290Z,4.01
2019-02-11T20:34:25.151Z,3.91
2019-02-11T20:36:52.385Z,3.78
2019-02-11T20:39:19.615Z,3.70
2019-02-11T20:41:46.939Z,3.63
2019-02-11T20:44:14.430Z,3.51
2019-02-11T20:46:41.680Z,3.49
2019-02-11T20:49:09.131Z,3.48
2019-02-11T20:51:36.305Z,3.43
2019-02-11T20:54:03.528Z,3.47
2019-02-11T20:56:30.609Z,3.38
2019-02-11T20:58:57.804Z,3.26
2019-02-11T21:01:24.926Z,3.17
2019-02-11T21:03:52.112Z,3.12
2019-02-11T21:06:19.195Z,3.13
2019-02-11T21:08:46.452Z,3.15
2019-02-11T21:11:13.661Z,3.08
2019-02-11T21:13:40.844Z,3.05
2019-02-11T21:16:08.388Z,2.96
2019-02-11T21:18:35.904Z,2.93
2019-02-11T21:21:03.001Z,2.87
2019-02-11T21:23:30.204Z,2.76
2019-02-11T21:25:57.424Z,2.89
2019-02-11T21:28:24.648Z,2.76
2019-02-11T21:30:52.053Z,2.70
2019-02-11T21:33:19.220Z,2.60
2019-02-11T21:35:46.970Z,2.55
2019-02-11T21:38:14.206Z,2.51
2019-02-11T21:40:41.415Z,2.45
2019-02-11T21:43:08.526Z,2.30
2019-02-11T21:45:35.787Z,2.29
2019-02-11T21:48:02.854Z,2.21
2019-02-11T21:50:30.262Z,2.17
2019-02-11T21:52:57.513Z,2.15
2019-02-11T21:55:24.742Z,2.37
2019-02-11T21:57:51.874Z,2.32
2019-02-11T22:00:19.139Z,2.25
2019-02-11T22:02:46.355Z,2.30
2019-02-11T22:05:13.626Z,2.34
2019-02-11T22:07:40.868Z,2.32
2019-02-11T22:10:09.695Z,2.29
2019-02-11T22:12:36.872Z,2.41
2019-02-11T22:15:04.585Z,2.48
2019-02-11T22:17:32.071Z,2.54
2019-02-11T22:19:59.257Z,2.53
2019-02-11T22:22:26.750Z,2.45
2019-02-11T22:24:54.127Z,2.40
2019-02-11T22:27:21.349Z,2.29
2019-02-11T22:29:48.465Z,2.21
2019-02-11T22:32:15.779Z,2.15
2019-02-11T22:34:42.945Z,2.10
2019-02-11T22:37:10.243Z,2.08
2019-02-11T22:39:37.539Z,2.18
2019-02-11T22:42:04.738Z,2.20
2019-02-11T22:44:31.917Z,2.17
2019-02-11T22:46:59.129Z,2.24
2019-02-11T22:49:26.325Z,2.27
2019-02-11T22:51:53.565Z,2.31
2019-02-11T22:54:20.753Z,2.32
2019-02-11T22:56:47.944Z,2.42
2019-02-11T22:59:15.354Z,2.33
2019-02-11T23:01:42.608Z,2.25
2019-02-11T23:04:10.072Z,2.41
2019-02-11T23:06:37.171Z,2.49
2019-02-11T23:09:06.460Z,2.41
2019-02-11T23:11:33.688Z,2.41
2019-02-11T23:14:00.976Z,2.35
2019-02-11T23:16:28.459Z,2.26
2019-02-11T23:18:55.642Z,2.24
2019-02-11T23:21:22.881Z,2.11
2019-02-11T23:23:50.063Z,2.00
2019-02-11T23:26:17.204Z,1.89
2019-02-11T23:28:44.422Z,1.81
2019-02-11T23:31:11.682Z,1.78
2019-02-11T23:33:38.894Z,1.75
2019-02-11T23:36:06.108Z,1.73
2019-02-11T23:38:33.299Z,1.75
2019-02-11T23:41:00.538Z,1.79
2019-02-11T23:43:27.845Z,1.79
2019-02-11T23:45:54.985Z,1.80
2019-02-11T23:48:22.056Z,1.83
2019-02-11T23:50:49.166Z,1.80
2019-02-11T23:53:16.258Z,1.81
2019-02-11T23:55:43.706Z,1.73
2019-02-11T23:58:10.939Z,1.74
